sensor_id;sensor_type;location;lat;lon;timestamp;pressure;altitude;pressure_sealevel;temperature;humidity
55733;BME280;41637;52.364;9.910;2022-08-25T03:20:31;101216.37;;;17.86;80.41
55733;BME280;41637;52.364;9.910;2022-08-25T03:22:58;101213.52;;;17.85;80.65
55733;BME280;41637;52.364;9.910;2022-08-25T03:25:25;101211.63;;;17.84;80.69
55733;BME280;41637;52.364;9.910;2022-08-25T03:28:11;101213.83;;;17.83;80.96
55733;BME280;41637;52.364;9.910;2022-08-25T03:30:38;101213.42;;;17.82;81.04
55733;BME280;41637;52.364;9.910;2022-08-25T03:33:05;101213.67;;;17.81;81.26
55733;BME280;41637;52.364;9.910;2022-08-25T03:35:35;101214.38;;;17.80;81.37
55733;BME280;41637;52.364;9.910;2022-08-25T03:38:03;101215.51;;;17.78;81.54
55733;BME280;41637;52.364;9.910;2022-08-25T03:40:30;101217.86;;;17.77;81.65
55733;BME280;41637;52.364;9.910;2022-08-25T03:42:58;101215.33;;;17.76;81.96
55733;BME280;41637;52.364;9.910;2022-08-25T03:45:25;101212.74;;;17.73;82.12
55733;BME280;41637;52.364;9.910;2022-08-25T03:47:52;101215.30;;;17.70;82.35
55733;BME280;41637;52.364;9.910;2022-08-25T03:50:21;101215.34;;;17.69;82.42
55733;BME280;41637;52.364;9.910;2022-08-25T03:52:53;101213.08;;;17.67;82.54
55733;BME280;41637;52.364;9.910;2022-08-25T03:55:21;101214.23;;;17.65;82.81
55733;BME280;41637;52.364;9.910;2022-08-25T03:57:50;101212.17;;;17.63;83.00
55733;BME280;41637;52.364;9.910;2022-08-25T04:00:17;101210.59;;;17.62;83.05
55733;BME280;41637;52.364;9.910;2022-08-25T04:02:44;101214.98;;;17.61;83.16
55733;BME280;41637;52.364;9.910;2022-08-25T04:05:12;101215.03;;;17.60;83.21
55733;BME280;41637;52.364;9.910;2022-08-25T04:07:41;101218.84;;;17.58;83.24
55733;BME280;41637;52.364;9.910;2022-08-25T04:10:09;101225.77;;;17.56;83.63
55733;BME280;41637;52.364;9.910;2022-08-25T04:12:38;101225.89;;;17.53;83.51
55733;BME280;41637;52.364;9.910;2022-08-25T04:15:06;101228.00;;;17.52;83.52
55733;BME280;41637;52.364;9.910;2022-08-25T04:17:36;101230.73;;;17.51;83.74
55733;BME280;41637;52.364;9.910;2022-08-25T04:20:06;101232.29;;;17.50;83.72
55733;BME280;41637;52.364;9.910;2022-08-25T04:22:35;101231.35;;;17.48;83.76
55733;BME280;41637;52.364;9.910;2022-08-25T04:25:05;101232.17;;;17.47;83.92
55733;BME280;41637;52.364;9.910;2022-08-25T04:27:32;101232.55;;;17.46;84.14
55733;BME280;41637;52.364;9.910;2022-08-25T04:29:59;101229.41;;;17.45;84.20
55733;BME280;41637;52.364;9.910;2022-08-25T04:32:29;101228.17;;;17.44;84.52
55733;BME280;41637;52.364;9.910;2022-08-25T04:34:57;101224.34;;;17.43;84.69
55733;BME280;41637;52.364;9.910;2022-08-25T04:37:24;101221.12;;;17.43;85.02
55733;BME280;41637;52.364;9.910;2022-08-25T04:39:51;101221.03;;;17.44;85.16
55733;BME280;41637;52.364;9.910;2022-08-25T04:42:18;101219.67;;;17.46;85.43
55733;BME280;41637;52.364;9.910;2022-08-25T04:44:45;101216.90;;;17.49;85.61
55733;BME280;41637;52.364;9.910;2022-08-25T04:47:12;101219.61;;;17.53;85.66
55733;BME280;41637;52.364;9.910;2022-08-25T04:49:39;101211.70;;;17.57;85.93
55733;BME280;41637;52.364;9.910;2022-08-25T04:52:07;101210.24;;;17.60;86.01
55733;BME280;41637;52.364;9.910;2022-08-25T04:54:40;101210.05;;;17.63;86.01
55733;BME280;41637;52.364;9.910;2022-08-25T04:57:08;101204.78;;;17.66;86.24
55733;BME280;41637;52.364;9.910;2022-08-25T04:59:35;101203.61;;;17.70;86.43
55733;BME280;41637;52.364;9.910;2022-08-25T05:02:02;101205.55;;;17.72;86.51
55733;BME280;41637;52.364;9.910;2022-08-25T05:04:31;101203.89;;;17.75;86.57
55733;BME280;41637;52.364;9.910;2022-08-25T05:06:59;101204.80;;;17.78;86.50
55733;BME280;41637;52.364;9.910;2022-08-25T05:09:27;101209.30;;;17.82;86.54
55733;BME280;41637;52.364;9.910;2022-08-25T05:11:58;101215.67;;;17.87;86.84
55733;BME280;41637;52.364;9.910;2022-08-25T05:14:26;101217.55;;;17.94;86.94
55733;BME280;41637;52.364;9.910;2022-08-25T05:16:56;101220.84;;;17.98;86.77
55733;BME280;41637;52.364;9.910;2022-08-25T05:19:24;101219.79;;;18.05;86.92
55733;BME280;41637;52.364;9.910;2022-08-25T05:21:52;101220.23;;;18.09;87.00
55733;BME280;41637;52.364;9.910;2022-08-25T05:24:19;101221.48;;;18.16;87.08
55733;BME280;41637;52.364;9.910;2022-08-25T05:26:46;101221.31;;;18.21;87.12
55733;BME280;41637;52.364;9.910;2022-08-25T05:29:13;101218.05;;;18.26;87.14
55733;BME280;41637;52.364;9.910;2022-08-25T05:31:41;101218.45;;;18.31;87.25
55733;BME280;41637;52.364;9.910;2022-08-25T05:34:16;101219.85;;;18.41;87.35
55733;BME280;41637;52.364;9.910;2022-08-25T05:36:44;101218.83;;;18.49;87.29
55733;BME280;41637;52.364;9.910;2022-08-25T05:39:13;101219.98;;;18.58;87.25
55733;BME280;41637;52.364;9.910;2022-08-25T05:41:40;101222.17;;;18.65;87.12
55733;BME280;41637;52.364;9.910;2022-08-25T05:44:08;101218.64;;;18.73;87.03
55733;BME280;41637;52.364;9.910;2022-08-25T05:46:35;101213.44;;;18.84;86.73
55733;BME280;41637;52.364;9.910;2022-08-25T05:49:02;101214.62;;;18.93;86.52
55733;BME280;41637;52.364;9.910;2022-08-25T05:51:29;101216.91;;;19.02;86.29
55733;BME280;41637;52.364;9.910;2022-08-25T05:53:56;101215.31;;;19.11;85.92
55733;BME280;41637;52.364;9.910;2022-08-25T05:56:23;101214.43;;;19.22;85.73
55733;BME280;41637;52.364;9.910;2022-08-25T05:58:50;101210.22;;;19.32;85.47
55733;BME280;41637;52.364;9.910;2022-08-25T06:01:23;101205.11;;;19.42;85.08
55733;BME280;41637;52.364;9.910;2022-08-25T06:04:11;101204.98;;;19.53;84.79
55733;BME280;41637;52.364;9.910;2022-08-25T06:06:39;101203.95;;;19.62;84.63
55733;BME280;41637;52.364;9.910;2022-08-25T06:09:06;101202.44;;;19.72;84.50
55733;BME280;41637;52.364;9.910;2022-08-25T06:11:36;101199.96;;;19.84;84.21
55733;BME280;41637;52.364;9.910;2022-08-25T06:14:03;101199.65;;;19.96;83.79
55733;BME280;41637;52.364;9.910;2022-08-25T06:16:30;101198.81;;;20.05;83.29
55733;BME280;41637;52.364;9.910;2022-08-25T06:18:57;101200.46;;;20.13;83.05
55733;BME280;41637;52.364;9.910;2022-08-25T06:21:25;101202.34;;;20.22;82.81
55733;BME280;41637;52.364;9.910;2022-08-25T06:23:52;101194.06;;;20.29;82.63
55733;BME280;41637;52.364;9.910;2022-08-25T06:26:19;101193.86;;;20.36;82.26
55733;BME280;41637;52.364;9.910;2022-08-25T06:28:48;101192.35;;;20.46;82.18
55733;BME280;41637;52.364;9.910;2022-08-25T06:31:16;101195.64;;;20.55;81.75
55733;BME280;41637;52.364;9.910;2022-08-25T06:33:47;101196.14;;;20.65;81.56
55733;BME280;41637;52.364;9.910;2022-08-25T06:36:14;101201.95;;;20.77;81.23
55733;BME280;41637;52.364;9.910;2022-08-25T06:38:41;101199.04;;;20.88;80.95
55733;BME280;41637;52.364;9.910;2022-08-25T06:41:09;101203.27;;;20.96;80.85
55733;BME280;41637;52.364;9.910;2022-08-25T06:43:40;101200.49;;;21.01;80.71
55733;BME280;41637;52.364;9.910;2022-08-25T06:46:19;101197.86;;;21.05;80.60
55733;BME280;41637;52.364;9.910;2022-08-25T06:48:47;101195.42;;;21.17;80.72
55733;BME280;41637;52.364;9.910;2022-08-25T06:51:17;101197.50;;;21.34;80.45
55733;BME280;41637;52.364;9.910;2022-08-25T06:53:45;101194.68;;;21.49;79.88
55733;BME280;41637;52.364;9.910;2022-08-25T06:56:13;101192.11;;;21.67;79.45
55733;BME280;41637;52.364;9.910;2022-08-25T06:58:41;101186.59;;;21.84;79.00
55733;BME280;41637;52.364;9.910;2022-08-25T07:01:14;101183.68;;;21.97;78.19
55733;BME280;41637;52.364;9.910;2022-08-25T07:03:46;101182.43;;;22.05;77.52
55733;BME280;41637;52.364;9.910;2022-08-25T07:06:14;101180.15;;;22.15;77.50
55733;BME280;41637;52.364;9.910;2022-08-25T07:08:45;101175.63;;;22.31;77.06
55733;BME280;41637;52.364;9.910;2022-08-25T07:11:13;101177.48;;;22.40;76.13
55733;BME280;41637;52.364;9.910;2022-08-25T07:13:43;101182.02;;;22.53;75.93
55733;BME280;41637;52.364;9.910;2022-08-25T07:16:10;101179.14;;;22.70;75.69
55733;BME280;41637;52.364;9.910;2022-08-25T07:18:38;101179.13;;;22.85;75.02
55733;BME280;41637;52.364;9.910;2022-08-25T07:21:05;101173.14;;;23.02;74.19
55733;BME280;41637;52.364;9.910;2022-08-25T07:23:35;101176.18;;;23.12;73.86
55733;BME280;41637;52.364;9.910;2022-08-25T07:26:12;101180.11;;;23.25;73.31
55733;BME280;41637;52.364;9.910;2022-08-25T07:29:00;101179.23;;;23.43;72.94
55733;BME280;41637;52.364;9.910;2022-08-25T07:31:28;101181.63;;;23.55;72.40
55733;BME280;41637;52.364;9.910;2022-08-25T07:33:56;101179.03;;;23.67;71.52
55733;BME280;41637;52.364;9.910;2022-08-25T07:36:43;101175.28;;;23.81;71.26
55733;BME280;41637;52.364;9.910;2022-08-25T07:39:10;101177.54;;;23.93;70.73
55733;BME280;41637;52.364;9.910;2022-08-25T07:41:39;101179.44;;;24.02;70.58
55733;BME280;41637;52.364;9.910;2022-08-25T07:44:08;101184.39;;;24.14;69.95
55733;BME280;41637;52.364;9.910;2022-08-25T07:46:36;101188.83;;;24.28;69.82
55733;BME280;41637;52.364;9.910;2022-08-25T07:49:03;101190.07;;;24.43;69.22
55733;BME280;41637;52.364;9.910;2022-08-25T07:51:42;101195.57;;;24.57;69.16
55733;BME280;41637;52.364;9.910;2022-08-25T07:54:31;101191.77;;;24.80;68.61
55733;BME280;41637;52.364;9.910;2022-08-25T07:57:01;101191.58;;;24.96;67.89
55733;BME280;41637;52.364;9.910;2022-08-25T07:59:29;101187.19;;;25.05;67.50
55733;BME280;41637;52.364;9.910;2022-08-25T08:02:11;101190.02;;;25.12;67.19
55733;BME280;41637;52.364;9.910;2022-08-25T08:04:49;101191.21;;;25.18;66.82
55733;BME280;41637;52.364;9.910;2022-08-25T08:07:23;101192.48;;;25.34;66.63
55733;BME280;41637;52.364;9.910;2022-08-25T08:10:10;101195.92;;;25.46;65.97
55733;BME280;41637;52.364;9.910;2022-08-25T08:12:58;101189.98;;;25.52;65.59
55733;BME280;41637;52.364;9.910;2022-08-25T08:15:26;101192.27;;;25.63;65.50
55733;BME280;41637;52.364;9.910;2022-08-25T08:17:56;101190.60;;;25.76;64.93
55733;BME280;41637;52.364;9.910;2022-08-25T08:20:25;101185.22;;;25.88;64.66
55733;BME280;41637;52.364;9.910;2022-08-25T08:22:52;101180.01;;;26.00;63.61
55733;BME280;41637;52.364;9.910;2022-08-25T08:25:18;101177.16;;;26.07;63.44
55733;BME280;41637;52.364;9.910;2022-08-25T08:27:54;101168.04;;;26.17;63.57
55733;BME280;41637;52.364;9.910;2022-08-25T08:30:22;101170.31;;;26.32;62.98
55733;BME280;41637;52.364;9.910;2022-08-25T08:32:52;101171.80;;;26.48;62.88
55733;BME280;41637;52.364;9.910;2022-08-25T08:35:38;101166.58;;;26.68;62.36
55733;BME280;41637;52.364;9.910;2022-08-25T08:38:07;101168.75;;;26.81;61.62
55733;BME280;41637;52.364;9.910;2022-08-25T08:40:47;101164.45;;;26.85;61.15
55733;BME280;41637;52.364;9.910;2022-08-25T08:43:41;101166.98;;;27.02;61.11
55733;BME280;41637;52.364;9.910;2022-08-25T08:46:09;101171.08;;;27.12;60.54
55733;BME280;41637;52.364;9.910;2022-08-25T08:49:05;101166.73;;;27.27;60.34
55733;BME280;41637;52.364;9.910;2022-08-25T08:51:36;101165.62;;;27.34;59.57
55733;BME280;41637;52.364;9.910;2022-08-25T08:54:17;101162.34;;;27.35;59.34
55733;BME280;41637;52.364;9.910;2022-08-25T08:56:52;101155.04;;;27.39;59.31
55733;BME280;41637;52.364;9.910;2022-08-25T08:59:25;101150.40;;;27.40;59.08
55733;BME280;41637;52.364;9.910;2022-08-25T09:02:01;101145.36;;;27.50;58.69
55733;BME280;41637;52.364;9.910;2022-08-25T09:04:43;101144.76;;;27.53;58.74
55733;BME280;41637;52.364;9.910;2022-08-25T09:07:15;101143.89;;;27.63;58.50
55733;BME280;41637;52.364;9.910;2022-08-25T09:09:46;101138.83;;;27.79;58.35
55733;BME280;41637;52.364;9.910;2022-08-25T09:12:38;101134.92;;;28.06;57.74
55733;BME280;41637;52.364;9.910;2022-08-25T09:21:41;101127.96;;;28.75;55.51
55733;BME280;41637;52.364;9.910;2022-08-25T09:24:53;101129.13;;;28.97;54.88
55733;BME280;41637;52.364;9.910;2022-08-25T09:30:03;101118.00;;;29.24;53.72
55733;BME280;41637;52.364;9.910;2022-08-25T09:32:40;101115.89;;;29.42;53.13
55733;BME280;41637;52.364;9.910;2022-08-25T09:35:20;101121.84;;;29.61;52.57
55733;BME280;41637;52.364;9.910;2022-08-25T09:37:58;101120.81;;;29.85;51.41
55733;BME280;41637;52.364;9.910;2022-08-25T09:40:28;101124.62;;;30.00;50.55
55733;BME280;41637;52.364;9.910;2022-08-25T09:42:58;101123.81;;;30.02;50.09
55733;BME280;41637;52.364;9.910;2022-08-25T09:48:30;101113.73;;;30.19;49.38
55733;BME280;41637;52.364;9.910;2022-08-25T09:51:19;101111.80;;;30.23;48.55
55733;BME280;41637;52.364;9.910;2022-08-25T09:56:56;101105.30;;;30.41;48.91
55733;BME280;41637;52.364;9.910;2022-08-25T09:59:29;101104.67;;;30.56;48.20
55733;BME280;41637;52.364;9.910;2022-08-25T10:02:05;101095.16;;;30.55;48.09
55733;BME280;41637;52.364;9.910;2022-08-25T10:04:46;101093.97;;;30.67;47.99
55733;BME280;41637;52.364;9.910;2022-08-25T10:07:23;101094.94;;;30.67;47.98
55733;BME280;41637;52.364;9.910;2022-08-25T10:09:54;101094.05;;;30.68;48.04
55733;BME280;41637;52.364;9.910;2022-08-25T10:12:40;101089.05;;;30.65;47.50
55733;BME280;41637;52.364;9.910;2022-08-25T10:15:24;101087.45;;;30.74;47.46
55733;BME280;41637;52.364;9.910;2022-08-25T10:18:23;101089.11;;;30.85;47.14
55733;BME280;41637;52.364;9.910;2022-08-25T10:23:49;101082.05;;;31.00;47.72
55733;BME280;41637;52.364;9.910;2022-08-25T10:26:40;101078.88;;;31.00;46.58
55733;BME280;41637;52.364;9.910;2022-08-25T10:29:20;101074.23;;;30.90;46.65
55733;BME280;41637;52.364;9.910;2022-08-25T10:31:56;101066.06;;;30.84;46.48
55733;BME280;41637;52.364;9.910;2022-08-25T10:43:48;101056.64;;;31.29;46.34
55733;BME280;41637;52.364;9.910;2022-08-25T10:45:57;101052.06;;;31.50;45.66
55733;BME280;41637;52.364;9.910;2022-08-25T10:51:51;101039.50;;;31.60;44.84
55733;BME280;41637;52.364;9.910;2022-08-25T10:54:41;101030.75;;;31.71;44.96
55733;BME280;41637;52.364;9.910;2022-08-25T11:00:10;101026.31;;;31.82;44.67
55733;BME280;41637;52.364;9.910;2022-08-25T11:07:53;101019.42;;;31.91;44.26
55733;BME280;41637;52.364;9.910;2022-08-25T11:10:40;101016.53;;;31.93;43.31
55733;BME280;41637;52.364;9.910;2022-08-25T11:13:16;101013.65;;;31.82;43.96
55733;BME280;41637;52.364;9.910;2022-08-25T11:15:51;101011.20;;;31.84;44.19
55733;BME280;41637;52.364;9.910;2022-08-25T11:19:06;101005.01;;;31.88;43.76
55733;BME280;41637;52.364;9.910;2022-08-25T11:21:41;100997.04;;;31.77;44.01
55733;BME280;41637;52.364;9.910;2022-08-25T11:24:32;100997.20;;;31.82;44.18
55733;BME280;41637;52.364;9.910;2022-08-25T11:27:05;100990.77;;;31.89;44.14
55733;BME280;41637;52.364;9.910;2022-08-25T11:29:41;100987.46;;;31.90;43.53
55733;BME280;41637;52.364;9.910;2022-08-25T11:32:12;100981.88;;;31.91;43.52
55733;BME280;41637;52.364;9.910;2022-08-25T11:34:40;100976.42;;;31.95;43.61
55733;BME280;41637;52.364;9.910;2022-08-25T11:37:25;100975.91;;;32.09;42.90
55733;BME280;41637;52.364;9.910;2022-08-25T11:50:35;100966.90;;;32.47;41.68
55733;BME280;41637;52.364;9.910;2022-08-25T11:53:23;100964.48;;;32.62;41.65
55733;BME280;41637;52.364;9.910;2022-08-25T11:55:54;100961.49;;;32.85;41.32
55733;BME280;41637;52.364;9.910;2022-08-25T12:00:57;100955.96;;;33.41;39.68
55733;BME280;41637;52.364;9.910;2022-08-25T12:06:19;100946.00;;;34.24;38.59
55733;BME280;41637;52.364;9.910;2022-08-25T12:11:52;100941.52;;;35.02;36.42
55733;BME280;41637;52.364;9.910;2022-08-25T12:27:28;100928.73;;;37.15;32.62
55733;BME280;41637;52.364;9.910;2022-08-25T12:30:17;100930.45;;;37.47;31.95
55733;BME280;41637;52.364;9.910;2022-08-25T12:33:19;100929.75;;;37.39;31.25
55733;BME280;41637;52.364;9.910;2022-08-25T12:38:36;100926.70;;;36.45;32.10
55733;BME280;41637;52.364;9.910;2022-08-25T12:41:26;100918.23;;;36.44;32.15
55733;BME280;41637;52.364;9.910;2022-08-25T12:44:32;100919.20;;;36.32;32.23
55733;BME280;41637;52.364;9.910;2022-08-25T12:49:49;100909.08;;;37.62;30.62
55733;BME280;41637;52.364;9.910;2022-08-25T12:52:19;100914.38;;;37.54;30.72
55733;BME280;41637;52.364;9.910;2022-08-25T12:54:56;100908.53;;;37.93;29.83
55733;BME280;41637;52.364;9.910;2022-08-25T12:57:45;100910.23;;;37.89;29.74
55733;BME280;41637;52.364;9.910;2022-08-25T13:00:24;100899.99;;;38.27;29.26
55733;BME280;41637;52.364;9.910;2022-08-25T13:06:09;100903.20;;;37.53;29.83
55733;BME280;41637;52.364;9.910;2022-08-25T13:11:38;100895.06;;;38.30;28.59
55733;BME280;41637;52.364;9.910;2022-08-25T13:14:21;100891.64;;;38.76;27.76
55733;BME280;41637;52.364;9.910;2022-08-25T13:16:54;100887.36;;;38.62;27.61
55733;BME280;41637;52.364;9.910;2022-08-25T13:19:23;100886.45;;;38.61;27.88
55733;BME280;41637;52.364;9.910;2022-08-25T13:21:51;100879.95;;;39.34;27.45
55733;BME280;41637;52.364;9.910;2022-08-25T13:24:31;100873.56;;;40.10;26.81
55733;BME280;41637;52.364;9.910;2022-08-25T13:27:08;100867.70;;;40.86;25.56
55733;BME280;41637;52.364;9.910;2022-08-25T13:29:54;100863.00;;;41.47;24.32
55733;BME280;41637;52.364;9.910;2022-08-25T13:32:31;100861.30;;;42.04;23.76
55733;BME280;41637;52.364;9.910;2022-08-25T13:35:14;100863.67;;;42.23;23.77
55733;BME280;41637;52.364;9.910;2022-08-25T13:37:45;100856.46;;;42.66;23.44
55733;BME280;41637;52.364;9.910;2022-08-25T13:40:20;100852.89;;;43.33;22.77
55733;BME280;41637;52.364;9.910;2022-08-25T13:43:00;100849.52;;;43.70;22.10
55733;BME280;41637;52.364;9.910;2022-08-25T13:45:30;100852.77;;;44.31;21.71
55733;BME280;41637;52.364;9.910;2022-08-25T13:48:08;100856.67;;;44.70;20.88
55733;BME280;41637;52.364;9.910;2022-08-25T13:50:49;100853.14;;;45.07;20.43
55733;BME280;41637;52.364;9.910;2022-08-25T13:53:23;100852.27;;;45.59;20.22
55733;BME280;41637;52.364;9.910;2022-08-25T13:55:53;100849.71;;;46.05;19.42
55733;BME280;41637;52.364;9.910;2022-08-25T13:58:25;100846.83;;;46.22;19.03
55733;BME280;41637;52.364;9.910;2022-08-25T14:01:28;100844.66;;;46.39;18.74
55733;BME280;41637;52.364;9.910;2022-08-25T14:09:56;100837.69;;;45.99;19.37
55733;BME280;41637;52.364;9.910;2022-08-25T14:12:36;100831.33;;;46.10;19.26
55733;BME280;41637;52.364;9.910;2022-08-25T14:15:27;100830.31;;;45.24;19.56
55733;BME280;41637;52.364;9.910;2022-08-25T14:18:17;100831.57;;;44.46;20.54
55733;BME280;41637;52.364;9.910;2022-08-25T14:20:48;100828.74;;;43.62;20.93
55733;BME280;41637;52.364;9.910;2022-08-25T14:23:20;100824.05;;;42.73;21.92
55733;BME280;41637;52.364;9.910;2022-08-25T14:25:49;100822.13;;;42.54;22.21
55733;BME280;41637;52.364;9.910;2022-08-25T14:28:24;100822.68;;;43.08;22.08
55733;BME280;41637;52.364;9.910;2022-08-25T14:31:01;100824.42;;;43.03;21.76
55733;BME280;41637;52.364;9.910;2022-08-25T14:33:40;100820.58;;;43.28;21.84
55733;BME280;41637;52.364;9.910;2022-08-25T14:36:08;100819.48;;;43.46;21.68
55733;BME280;41637;52.364;9.910;2022-08-25T14:38:35;100814.86;;;43.51;21.71
55733;BME280;41637;52.364;9.910;2022-08-25T14:41:06;100812.21;;;44.03;21.21
55733;BME280;41637;52.364;9.910;2022-08-25T14:43:38;100807.92;;;44.61;20.69
55733;BME280;41637;52.364;9.910;2022-08-25T14:46:17;100799.16;;;44.74;20.62
55733;BME280;41637;52.364;9.910;2022-08-25T14:48:47;100803.44;;;44.41;20.86
55733;BME280;41637;52.364;9.910;2022-08-25T14:51:16;100797.23;;;44.58;20.39
55733;BME280;41637;52.364;9.910;2022-08-25T14:53:43;100794.73;;;44.95;19.94
55733;BME280;41637;52.364;9.910;2022-08-25T14:56:10;100789.13;;;45.23;19.56
55733;BME280;41637;52.364;9.910;2022-08-25T14:58:39;100790.63;;;45.28;19.65
55733;BME280;41637;52.364;9.910;2022-08-25T15:01:21;100786.73;;;45.09;19.81
55733;BME280;41637;52.364;9.910;2022-08-25T15:04:16;100783.22;;;44.61;20.25
55733;BME280;41637;52.364;9.910;2022-08-25T15:06:45;100787.63;;;43.60;21.09
55733;BME280;41637;52.364;9.910;2022-08-25T15:09:14;100789.17;;;43.05;21.35
55733;BME280;41637;52.364;9.910;2022-08-25T15:11:46;100787.19;;;42.45;22.06
55733;BME280;41637;52.364;9.910;2022-08-25T15:14:17;100789.23;;;41.81;22.86
55733;BME280;41637;52.364;9.910;2022-08-25T15:16:59;100783.66;;;41.45;23.44
55733;BME280;41637;52.364;9.910;2022-08-25T15:19:27;100777.15;;;41.22;23.60
55733;BME280;41637;52.364;9.910;2022-08-25T15:21:54;100780.97;;;40.79;24.02
55733;BME280;41637;52.364;9.910;2022-08-25T15:24:25;100776.66;;;40.83;24.17
55733;BME280;41637;52.364;9.910;2022-08-25T15:26:57;100775.22;;;40.76;24.47
55733;BME280;41637;52.364;9.910;2022-08-25T15:29:27;100773.48;;;40.46;24.81
55733;BME280;41637;52.364;9.910;2022-08-25T15:31:56;100767.88;;;40.48;25.07
55733;BME280;41637;52.364;9.910;2022-08-25T15:34:24;100763.74;;;40.21;25.19
55733;BME280;41637;52.364;9.910;2022-08-25T15:36:54;100761.05;;;40.21;25.43
55733;BME280;41637;52.364;9.910;2022-08-25T15:39:21;100764.16;;;40.27;25.51
55733;BME280;41637;52.364;9.910;2022-08-25T15:41:48;100767.19;;;40.58;25.46
55733;BME280;41637;52.364;9.910;2022-08-25T15:44:18;100765.08;;;40.78;25.00
55733;BME280;41637;52.364;9.910;2022-08-25T15:46:54;100760.21;;;40.51;24.88
55733;BME280;41637;52.364;9.910;2022-08-25T15:49:21;100757.52;;;40.07;25.42
55733;BME280;41637;52.364;9.910;2022-08-25T15:51:53;100761.30;;;39.75;25.89
55733;BME280;41637;52.364;9.910;2022-08-25T15:54:24;100759.61;;;39.40;26.12
55733;BME280;41637;52.364;9.910;2022-08-25T15:56:53;100759.82;;;39.17;26.66
55733;BME280;41637;52.364;9.910;2022-08-25T15:59:23;100753.52;;;38.98;26.77
55733;BME280;41637;52.364;9.910;2022-08-25T16:01:51;100755.89;;;38.78;27.05
55733;BME280;41637;52.364;9.910;2022-08-25T16:04:21;100753.29;;;38.59;27.32
55733;BME280;41637;52.364;9.910;2022-08-25T16:06:53;100752.27;;;38.63;27.31
55733;BME280;41637;52.364;9.910;2022-08-25T16:09:25;100751.80;;;38.64;27.44
55733;BME280;41637;52.364;9.910;2022-08-25T16:11:54;100750.19;;;38.66;27.46
55733;BME280;41637;52.364;9.910;2022-08-25T16:14:28;100747.99;;;38.60;27.45
55733;BME280;41637;52.364;9.910;2022-08-25T16:16:55;100745.60;;;38.33;27.75
55733;BME280;41637;52.364;9.910;2022-08-25T16:19:26;100737.70;;;37.86;28.18
55733;BME280;41637;52.364;9.910;2022-08-25T16:21:53;100735.33;;;37.26;29.09
55733;BME280;41637;52.364;9.910;2022-08-25T16:24:20;100731.39;;;36.71;29.93
55733;BME280;41637;52.364;9.910;2022-08-25T16:26:47;100731.36;;;36.46;30.11
55733;BME280;41637;52.364;9.910;2022-08-25T16:29:17;100729.30;;;36.40;30.23
55733;BME280;41637;52.364;9.910;2022-08-25T16:31:45;100728.48;;;36.60;30.07
55733;BME280;41637;52.364;9.910;2022-08-25T16:34:20;100725.30;;;36.79;29.89
55733;BME280;41637;52.364;9.910;2022-08-25T16:36:51;100725.13;;;36.97;29.83
55733;BME280;41637;52.364;9.910;2022-08-25T16:39:19;100724.10;;;36.93;29.75
55733;BME280;41637;52.364;9.910;2022-08-25T16:41:46;100719.93;;;36.88;29.98
55733;BME280;41637;52.364;9.910;2022-08-25T16:44:13;100721.16;;;36.90;29.92
55733;BME280;41637;52.364;9.910;2022-08-25T16:46:40;100720.00;;;36.85;29.94
55733;BME280;41637;52.364;9.910;2022-08-25T16:49:11;100718.81;;;36.82;30.21
55733;BME280;41637;52.364;9.910;2022-08-25T16:51:41;100717.73;;;36.92;29.64
55733;BME280;41637;52.364;9.910;2022-08-25T16:54:10;100714.38;;;36.96;29.79
55733;BME280;41637;52.364;9.910;2022-08-25T16:56:56;100709.98;;;36.71;30.20
55733;BME280;41637;52.364;9.910;2022-08-25T16:59:23;100713.06;;;36.58;30.43
55733;BME280;41637;52.364;9.910;2022-08-25T17:01:50;100715.65;;;36.54;30.62
55733;BME280;41637;52.364;9.910;2022-08-25T17:04:18;100710.69;;;36.60;30.68
55733;BME280;41637;52.364;9.910;2022-08-25T17:06:46;100711.95;;;36.70;30.42
55733;BME280;41637;52.364;9.910;2022-08-25T17:09:17;100713.19;;;36.64;30.50
55733;BME280;41637;52.364;9.910;2022-08-25T17:11:49;100712.14;;;36.44;30.52
55733;BME280;41637;52.364;9.910;2022-08-25T17:14:20;100711.15;;;36.12;30.79
55733;BME280;41637;52.364;9.910;2022-08-25T17:16:48;100714.70;;;35.81;31.49
55733;BME280;41637;52.364;9.910;2022-08-25T17:19:17;100712.09;;;35.38;32.09
55733;BME280;41637;52.364;9.910;2022-08-25T17:21:45;100715.13;;;34.90;32.68
55733;BME280;41637;52.364;9.910;2022-08-25T17:24:15;100718.67;;;34.41;33.10
55733;BME280;41637;52.364;9.910;2022-08-25T17:26:43;100722.86;;;34.01;33.70
55733;BME280;41637;52.364;9.910;2022-08-25T17:29:12;100723.64;;;33.58;34.45
55733;BME280;41637;52.364;9.910;2022-08-25T17:31:39;100724.84;;;33.21;35.36
55733;BME280;41637;52.364;9.910;2022-08-25T17:34:11;100724.02;;;32.87;35.74
55733;BME280;41637;52.364;9.910;2022-08-25T17:36:42;100724.19;;;32.61;36.53
55733;BME280;41637;52.364;9.910;2022-08-25T17:39:11;100719.13;;;32.31;36.98
55733;BME280;41637;52.364;9.910;2022-08-25T17:41:39;100721.23;;;32.06;37.49
55733;BME280;41637;52.364;9.910;2022-08-25T17:44:08;100718.70;;;31.82;37.92
55733;BME280;41637;52.364;9.910;2022-08-25T17:46:35;100718.27;;;31.64;38.32
55733;BME280;41637;52.364;9.910;2022-08-25T17:49:10;100719.91;;;31.56;38.94
55733;BME280;41637;52.364;9.910;2022-08-25T17:51:37;100716.60;;;31.49;39.03
55733;BME280;41637;52.364;9.910;2022-08-25T17:54:04;100718.98;;;31.39;39.37
55733;BME280;41637;52.364;9.910;2022-08-25T17:56:30;100723.58;;;31.31;39.41
55733;BME280;41637;52.364;9.910;2022-08-25T17:58:58;100721.65;;;31.20;39.68
55733;BME280;41637;52.364;9.910;2022-08-25T18:01:31;100721.80;;;31.08;39.97
55733;BME280;41637;52.364;9.910;2022-08-25T18:03:59;100725.41;;;30.90;40.20
55733;BME280;41637;52.364;9.910;2022-08-25T18:06:27;100727.02;;;30.72;40.56